createdAt,value
2023-01-27T15:15:53.597Z,100751.23
2023-01-27T15:18:22.372Z,100751.04
2023-01-27T15:21:08.230Z,100751.36
2023-01-27T15:23:50.645Z,100748.65
2023-01-27T15:26:21.746Z,100749.58
2023-01-27T15:28:50.273Z,100741.41
2023-01-27T15:31:18.747Z,100741.70
2023-01-27T15:34:12.417Z,100742.20
2023-01-27T15:37:01.732Z,100746.69
2023-01-27T15:39:40.816Z,100748.13
2023-01-27T15:42:13.177Z,100748.34
2023-01-27T15:44:59.069Z,100745.17
2023-01-27T15:47:29.600Z,100738.34
2023-01-27T15:50:26.365Z,100735.15
2023-01-27T15:53:03.687Z,100737.48
2023-01-27T15:55:35.897Z,100743.20
2023-01-27T15:58:07.041Z,100742.75
2023-01-27T16:00:38.074Z,100740.05
2023-01-27T16:03:19.994Z,100735.73
2023-01-27T16:05:49.779Z,100729.22
2023-01-27T16:08:18.260Z,100729.70
2023-01-27T16:10:46.801Z,100729.04
2023-01-27T16:13:27.790Z,100727.32
2023-01-27T16:16:18.141Z,100727.61
2023-01-27T16:18:53.366Z,100727.16
2023-01-27T16:21:34.507Z,100726.30
2023-01-27T16:24:25.762Z,100730.79
2023-01-27T16:26:56.828Z,100731.56
2023-01-27T16:29:45.551Z,100731.98
2023-01-27T16:32:17.438Z,100729.61
2023-01-27T16:35:04.483Z,100731.42
2023-01-27T16:37:35.111Z,100745.73
2023-01-27T16:40:09.379Z,100748.73
2023-01-27T16:42:55.501Z,100752.11
2023-01-27T16:45:29.268Z,100753.77
2023-01-27T16:47:59.184Z,100762.58
2023-01-27T16:50:38.841Z,100761.72
2023-01-27T16:53:13.046Z,100766.46
2023-01-27T16:55:41.524Z,100765.11
2023-01-27T16:58:20.835Z,100765.05
2023-01-27T17:00:52.503Z,100764.34
2023-01-27T17:03:28.310Z,100760.73
2023-01-27T17:05:57.115Z,100755.69
2023-01-27T17:08:27.607Z,100749.62
2023-01-27T17:11:05.849Z,100746.99
2023-01-27T17:13:36.545Z,100750.11
2023-01-27T17:16:06.748Z,100748.01
2023-01-27T17:18:50.732Z,100743.07
2023-01-27T17:21:32.135Z,100739.94
2023-01-27T17:24:12.829Z,100739.52
2023-01-27T17:26:43.120Z,100735.99
2023-01-27T17:29:19.500Z,100735.60
2023-01-27T17:31:48.012Z,100735.36
2023-01-27T17:34:18.942Z,100738.90
2023-01-27T17:37:16.764Z,100744.89
2023-01-27T17:39:45.941Z,100745.44
2023-01-27T17:42:16.927Z,100745.10
2023-01-27T17:44:46.168Z,100745.86
2023-01-27T17:47:19.213Z,100738.64
2023-01-27T17:49:50.708Z,100734.02
2023-01-27T17:52:22.548Z,100731.61
2023-01-27T17:54:52.501Z,100725.17
2023-01-27T17:57:22.430Z,100719.27
2023-01-27T18:00:07.164Z,100725.50
2023-01-27T18:02:50.953Z,100735.88
2023-01-27T18:05:22.463Z,100731.77
2023-01-27T18:07:51.020Z,100734.79
2023-01-27T18:10:26.893Z,100728.95
2023-01-27T18:12:55.986Z,100733.50
2023-01-27T18:15:42.374Z,100735.14
2023-01-27T18:18:23.709Z,100732.34
2023-01-27T18:21:04.686Z,100725.45
2023-01-27T18:23:38.118Z,100721.30
2023-01-27T18:26:07.132Z,100720.45
2023-01-27T18:28:36.887Z,100724.86
2023-01-27T18:31:19.285Z,100727.95
2023-01-27T18:34:08.068Z,100719.91
2023-01-27T18:36:37.616Z,100717.70
2023-01-27T18:39:25.480Z,100711.35
2023-01-27T18:41:54.980Z,100706.48
2023-01-27T18:44:44.530Z,100708.73
2023-01-27T18:47:19.639Z,100706.20
2023-01-27T18:50:12.451Z,100705.67
2023-01-27T18:52:42.446Z,100704.64
2023-01-27T18:55:10.926Z,100702.70
2023-01-27T18:57:39.805Z,100704.47
2023-01-27T19:00:10.813Z,100698.43
2023-01-27T19:02:39.375Z,100700.27
2023-01-27T19:05:24.159Z,100696.73
2023-01-27T19:07:52.469Z,100693.59
2023-01-27T19:10:25.967Z,100686.91
2023-01-27T19:12:56.203Z,100688.06
2023-01-27T19:15:25.722Z,100688.05
2023-01-27T19:17:56.038Z,100686.33
2023-01-27T19:20:26.707Z,100683.05
2023-01-27T19:22:57.207Z,100679.90
2023-01-27T19:25:27.583Z,100684.70
2023-01-27T19:27:57.495Z,100683.86
2023-01-27T19:30:36.442Z,100680.29
2023-01-27T19:33:19.497Z,100678.27
2023-01-27T19:35:55.260Z,100674.23
2023-01-27T19:38:23.912Z,100672.23
2023-01-27T19:40:53.003Z,100671.14
2023-01-27T19:43:22.100Z,100670.40
2023-01-27T19:45:52.174Z,100671.02
2023-01-27T19:48:22.666Z,100666.79
2023-01-27T19:50:51.598Z,100666.65
2023-01-27T19:53:24.828Z,100667.02
2023-01-27T19:55:57.462Z,100669.98
2023-01-27T19:58:27.385Z,100672.61
2023-01-27T20:00:58.381Z,100671.22
2023-01-27T20:03:26.815Z,100667.95
2023-01-27T20:05:55.817Z,100671.41
2023-01-27T20:08:24.424Z,100672.19
2023-01-27T20:10:53.723Z,100670.00
2023-01-27T20:13:22.548Z,100669.39
2023-01-27T20:15:52.748Z,100669.72
2023-01-27T20:18:23.857Z,100665.71
2023-01-27T20:20:52.585Z,100665.11
2023-01-27T20:23:21.301Z,100665.78
2023-01-27T20:25:50.345Z,100663.73
2023-01-27T20:28:19.343Z,100663.29
2023-01-27T20:30:48.480Z,100661.94
2023-01-27T20:33:17.893Z,100668.13
2023-01-27T20:35:46.839Z,100670.73
2023-01-27T20:38:15.308Z,100673.34
2023-01-27T20:40:43.871Z,100675.96
2023-01-27T20:43:13.461Z,100680.32
2023-01-27T20:45:42.947Z,100683.39
2023-01-27T20:48:11.692Z,100683.69
2023-01-27T20:50:41.621Z,100684.09
2023-01-27T20:53:10.499Z,100678.93
2023-01-27T20:55:39.288Z,100673.37
2023-01-27T20:58:07.974Z,100669.48
2023-01-27T21:00:36.965Z,100674.20
2023-01-27T21:03:05.557Z,100668.46
2023-01-27T21:05:35.567Z,100663.38
2023-01-27T21:08:04.418Z,100661.17
2023-01-27T21:10:33.247Z,100659.85
2023-01-27T21:13:22.309Z,100657.40
2023-01-27T21:15:51.609Z,100658.29
2023-01-27T21:18:20.293Z,100657.15
2023-01-27T21:20:54.681Z,100661.32
2023-01-27T21:23:24.490Z,100661.45
2023-01-27T21:25:52.835Z,100660.35
2023-01-27T21:28:21.441Z,100658.60
2023-01-27T21:30:50.091Z,100654.40
2023-01-27T21:33:18.704Z,100653.65
2023-01-27T21:35:54.695Z,100653.62
2023-01-27T21:38:23.506Z,100652.30
2023-01-27T21:40:53.425Z,100652.17
2023-01-27T21:43:55.386Z,100651.14
2023-01-27T21:46:24.249Z,100645.90
2023-01-27T21:48:52.767Z,100645.14
2023-01-27T21:51:21.717Z,100641.17
2023-01-27T21:53:50.341Z,100643.47
2023-01-27T21:56:18.919Z,100639.98
2023-01-27T21:58:47.711Z,100634.33
2023-01-27T22:02:11.564Z,100631.65
2023-01-27T22:04:41.523Z,100626.97
2023-01-27T22:07:14.275Z,100629.86
2023-01-27T22:09:43.007Z,100628.71
2023-01-27T22:12:13.875Z,100629.18
2023-01-27T22:14:43.068Z,100626.09
2023-01-27T22:17:11.653Z,100620.63
2023-01-27T22:19:40.145Z,100616.61
2023-01-27T22:22:10.295Z,100622.84
2023-01-27T22:24:41.804Z,100616.90
2023-01-27T22:27:10.284Z,100611.44
2023-01-27T22:29:39.462Z,100615.76
2023-01-27T22:32:11.909Z,100614.94
2023-01-27T22:34:40.352Z,100611.66
2023-01-27T22:37:08.946Z,100603.14
2023-01-27T22:39:38.390Z,100607.16
2023-01-27T22:42:07.137Z,100600.67
2023-01-27T22:44:36.340Z,100598.30
2023-01-27T22:47:05.953Z,100600.40
2023-01-27T22:49:35.357Z,100592.23
2023-01-27T22:52:04.221Z,100596.39
2023-01-27T22:54:33.003Z,100591.00
2023-01-27T22:57:01.688Z,100590.54
2023-01-27T22:59:30.276Z,100592.14
2023-01-27T23:01:58.857Z,100597.59
2023-01-27T23:04:27.539Z,100598.06
2023-01-27T23:06:56.337Z,100597.09
2023-01-27T23:09:24.922Z,100595.98
2023-01-27T23:11:53.717Z,100600.42
2023-01-27T23:14:22.463Z,100607.56
2023-01-27T23:16:53.152Z,100610.82
2023-01-27T23:19:22.267Z,100607.02
2023-01-27T23:21:50.854Z,100606.58
2023-01-27T23:24:19.287Z,100609.69
2023-01-27T23:26:47.965Z,100613.52
2023-01-27T23:29:24.567Z,100613.92
2023-01-27T23:31:53.812Z,100613.54
2023-01-27T23:34:22.752Z,100617.92
2023-01-27T23:36:51.537Z,100616.74
2023-01-27T23:39:20.249Z,100614.52
2023-01-27T23:41:49.024Z,100614.21
2023-01-27T23:44:17.720Z,100614.70
2023-01-27T23:46:46.241Z,100611.66
2023-01-27T23:49:15.670Z,100616.94
2023-01-27T23:51:44.308Z,100620.36
2023-01-27T23:54:13.343Z,100612.16
2023-01-27T23:56:41.825Z,100609.20
2023-01-27T23:59:12.559Z,100602.66
